sensor_id;sensor_type;location;lat;lon;timestamp;pressure;altitude;pressure_sealevel;temperature;humidity
9899;BME280;4988;49.238;6.698;2023-04-16T00:01:54;99329.22;;;10.42;77.34
9899;BME280;4988;49.238;6.698;2023-04-16T00:04:20;99324.34;;;10.31;77.32
9899;BME280;4988;49.238;6.698;2023-04-16T00:06:45;99325.19;;;10.32;77.70
9899;BME280;4988;49.238;6.698;2023-04-16T00:09:10;99323.47;;;10.30;77.79
9899;BME280;4988;49.238;6.698;2023-04-16T00:11:36;99328.06;;;10.27;77.16
9899;BME280;4988;49.238;6.698;2023-04-16T00:14:01;99320.13;;;10.25;77.61
9899;BME280;4988;49.238;6.698;2023-04-16T00:16:26;99326.56;;;10.20;78.22
9899;BME280;4988;49.238;6.698;2023-04-16T00:18:52;99320.97;;;10.27;77.71
9899;BME280;4988;49.238;6.698;2023-04-16T00:21:17;99322.66;;;10.28;77.23
9899;BME280;4988;49.238;6.698;2023-04-16T00:23:42;99322.00;;;10.23;77.54
9899;BME280;4988;49.238;6.698;2023-04-16T00:26:08;99319.22;;;10.26;77.44
9899;BME280;4988;49.238;6.698;2023-04-16T00:28:33;99322.81;;;10.25;77.73
9899;BME280;4988;49.238;6.698;2023-04-16T00:31:00;99320.97;;;10.27;78.00
9899;BME280;4988;49.238;6.698;2023-04-16T00:33:25;99329.72;;;10.29;77.64
9899;BME280;4988;49.238;6.698;2023-04-16T00:35:51;99332.44;;;10.28;77.99
9899;BME280;4988;49.238;6.698;2023-04-16T00:38:16;99334.94;;;10.33;77.27
9899;BME280;4988;49.238;6.698;2023-04-16T00:40:41;99334.13;;;10.30;77.49
9899;BME280;4988;49.238;6.698;2023-04-16T00:43:07;99330.78;;;10.25;77.53
9899;BME280;4988;49.238;6.698;2023-04-16T00:45:32;99332.63;;;10.23;77.86
9899;BME280;4988;49.238;6.698;2023-04-16T00:47:58;99321.25;;;10.20;77.85
9899;BME280;4988;49.238;6.698;2023-04-16T00:50:24;99318.59;;;10.20;78.03
9899;BME280;4988;49.238;6.698;2023-04-16T00:52:50;99322.19;;;10.19;78.28
9899;BME280;4988;49.238;6.698;2023-04-16T00:55:16;99323.81;;;10.23;77.89
9899;BME280;4988;49.238;6.698;2023-04-16T00:57:43;99321.22;;;10.21;77.82
9899;BME280;4988;49.238;6.698;2023-04-16T01:00:09;99319.47;;;10.20;78.19
9899;BME280;4988;49.238;6.698;2023-04-16T01:02:34;99323.16;;;10.16;78.27
9899;BME280;4988;49.238;6.698;2023-04-16T01:05:01;99337.28;;;10.18;78.52
9899;BME280;4988;49.238;6.698;2023-04-16T01:07:27;99335.72;;;10.12;78.61
9899;BME280;4988;49.238;6.698;2023-04-16T01:09:52;99316.41;;;10.09;78.95
9899;BME280;4988;49.238;6.698;2023-04-16T01:12:17;99332.91;;;9.95;79.89
9899;BME280;4988;49.238;6.698;2023-04-16T01:14:43;99321.09;;;10.02;79.21
9899;BME280;4988;49.238;6.698;2023-04-16T01:17:08;99330.56;;;9.87;80.08
9899;BME280;4988;49.238;6.698;2023-04-16T01:19:33;99323.41;;;9.89;80.12
9899;BME280;4988;49.238;6.698;2023-04-16T01:22:00;99332.97;;;9.93;80.18
9899;BME280;4988;49.238;6.698;2023-04-16T01:24:26;99334.72;;;9.94;80.01
9899;BME280;4988;49.238;6.698;2023-04-16T01:26:51;99335.69;;;9.92;80.49
9899;BME280;4988;49.238;6.698;2023-04-16T01:29:17;99340.22;;;9.90;80.31
9899;BME280;4988;49.238;6.698;2023-04-16T01:31:42;99344.53;;;9.92;80.10
9899;BME280;4988;49.238;6.698;2023-04-16T01:34:07;99349.16;;;9.87;81.05
9899;BME280;4988;49.238;6.698;2023-04-16T01:36:33;99346.44;;;9.89;80.99
9899;BME280;4988;49.238;6.698;2023-04-16T01:38:58;99349.41;;;9.81;81.19
9899;BME280;4988;49.238;6.698;2023-04-16T01:41:23;99348.50;;;9.82;81.58
9899;BME280;4988;49.238;6.698;2023-04-16T01:43:49;99352.06;;;9.81;81.50
9899;BME280;4988;49.238;6.698;2023-04-16T01:46:17;99354.72;;;9.81;81.60
9899;BME280;4988;49.238;6.698;2023-04-16T01:48:45;99349.41;;;9.81;81.53
9899;BME280;4988;49.238;6.698;2023-04-16T01:51:10;99357.47;;;9.79;81.85
9899;BME280;4988;49.238;6.698;2023-04-16T01:53:36;99357.72;;;9.73;82.41
9899;BME280;4988;49.238;6.698;2023-04-16T01:56:01;99360.38;;;9.73;82.51
9899;BME280;4988;49.238;6.698;2023-04-16T01:58:28;99361.03;;;9.78;81.64
9899;BME280;4988;49.238;6.698;2023-04-16T02:00:54;99354.31;;;9.70;82.46
9899;BME280;4988;49.238;6.698;2023-04-16T02:03:20;99347.06;;;9.73;82.82
9899;BME280;4988;49.238;6.698;2023-04-16T02:05:45;99359.63;;;9.70;82.83
9899;BME280;4988;49.238;6.698;2023-04-16T02:08:11;99358.56;;;9.74;82.65
9899;BME280;4988;49.238;6.698;2023-04-16T02:10:36;99366.84;;;9.66;83.68
9899;BME280;4988;49.238;6.698;2023-04-16T02:13:02;99365.63;;;9.75;83.35
9899;BME280;4988;49.238;6.698;2023-04-16T02:15:27;99361.16;;;9.75;82.38
9899;BME280;4988;49.238;6.698;2023-04-16T02:17:52;99360.28;;;9.75;82.31
9899;BME280;4988;49.238;6.698;2023-04-16T02:20:20;99365.78;;;9.70;82.69
9899;BME280;4988;49.238;6.698;2023-04-16T02:22:46;99368.34;;;9.73;82.74
9899;BME280;4988;49.238;6.698;2023-04-16T02:25:11;99369.56;;;9.64;82.58
9899;BME280;4988;49.238;6.698;2023-04-16T02:27:38;99362.56;;;9.62;83.15
9899;BME280;4988;49.238;6.698;2023-04-16T02:30:04;99358.13;;;9.62;82.92
9899;BME280;4988;49.238;6.698;2023-04-16T02:32:29;99353.72;;;9.61;83.26
9899;BME280;4988;49.238;6.698;2023-04-16T02:34:55;99360.63;;;9.65;82.32
9899;BME280;4988;49.238;6.698;2023-04-16T02:37:21;99359.28;;;9.55;82.50
9899;BME280;4988;49.238;6.698;2023-04-16T02:39:46;99361.94;;;9.55;82.70
9899;BME280;4988;49.238;6.698;2023-04-16T02:42:14;99362.97;;;9.51;82.74
9899;BME280;4988;49.238;6.698;2023-04-16T02:44:40;99359.50;;;9.49;82.94
9899;BME280;4988;49.238;6.698;2023-04-16T02:47:05;99365.69;;;9.49;83.23
9899;BME280;4988;49.238;6.698;2023-04-16T02:49:30;99356.28;;;9.41;84.02
9899;BME280;4988;49.238;6.698;2023-04-16T02:51:56;99355.50;;;9.37;83.54
9899;BME280;4988;49.238;6.698;2023-04-16T02:54:21;99359.84;;;9.40;83.78
9899;BME280;4988;49.238;6.698;2023-04-16T02:56:46;99361.59;;;9.41;83.56
9899;BME280;4988;49.238;6.698;2023-04-16T02:59:12;99360.59;;;9.43;83.68
9899;BME280;4988;49.238;6.698;2023-04-16T03:01:37;99354.44;;;9.43;84.01
9899;BME280;4988;49.238;6.698;2023-04-16T03:04:02;99360.44;;;9.48;83.72
9899;BME280;4988;49.238;6.698;2023-04-16T03:06:28;99365.69;;;9.49;83.35
9899;BME280;4988;49.238;6.698;2023-04-16T03:08:53;99366.78;;;9.44;83.52
9899;BME280;4988;49.238;6.698;2023-04-16T03:11:19;99371.22;;;9.43;83.53
9899;BME280;4988;49.238;6.698;2023-04-16T03:13:44;99366.91;;;9.41;84.09
9899;BME280;4988;49.238;6.698;2023-04-16T03:16:10;99370.84;;;9.30;84.40
9899;BME280;4988;49.238;6.698;2023-04-16T03:18:35;99375.78;;;9.40;83.96
9899;BME280;4988;49.238;6.698;2023-04-16T03:21:01;99367.78;;;9.41;83.96
9899;BME280;4988;49.238;6.698;2023-04-16T03:23:26;99373.94;;;9.42;84.09
9899;BME280;4988;49.238;6.698;2023-04-16T03:25:52;99374.19;;;9.36;83.98
9899;BME280;4988;49.238;6.698;2023-04-16T03:28:17;99372.34;;;9.38;83.91
9899;BME280;4988;49.238;6.698;2023-04-16T03:30:49;99371.59;;;9.34;83.94
9899;BME280;4988;49.238;6.698;2023-04-16T03:33:15;99370.00;;;9.28;84.37
9899;BME280;4988;49.238;6.698;2023-04-16T03:35:41;99372.91;;;9.22;84.69
9899;BME280;4988;49.238;6.698;2023-04-16T03:38:06;99377.38;;;9.20;84.97
9899;BME280;4988;49.238;6.698;2023-04-16T03:40:31;99372.13;;;9.18;84.56
9899;BME280;4988;49.238;6.698;2023-04-16T03:42:57;99379.34;;;9.15;84.70
9899;BME280;4988;49.238;6.698;2023-04-16T03:45:22;99379.56;;;9.09;84.92
9899;BME280;4988;49.238;6.698;2023-04-16T03:47:47;99383.97;;;9.10;85.85
9899;BME280;4988;49.238;6.698;2023-04-16T03:50:19;99381.38;;;9.08;85.23
9899;BME280;4988;49.238;6.698;2023-04-16T03:52:45;99386.03;;;9.01;85.40
9899;BME280;4988;49.238;6.698;2023-04-16T03:55:11;99389.63;;;9.00;85.13
9899;BME280;4988;49.238;6.698;2023-04-16T03:57:37;99388.97;;;8.94;85.24
9899;BME280;4988;49.238;6.698;2023-04-16T04:00:03;99381.16;;;8.89;85.66
9899;BME280;4988;49.238;6.698;2023-04-16T04:02:29;99385.53;;;8.90;85.93
9899;BME280;4988;49.238;6.698;2023-04-16T04:04:54;99388.19;;;8.90;86.31
9899;BME280;4988;49.238;6.698;2023-04-16T04:07:19;99390.16;;;8.85;86.94
9899;BME280;4988;49.238;6.698;2023-04-16T04:09:45;99389.25;;;8.86;86.12
9899;BME280;4988;49.238;6.698;2023-04-16T04:12:10;99395.47;;;8.85;86.14
9899;BME280;4988;49.238;6.698;2023-04-16T04:14:35;99399.94;;;8.83;86.57
9899;BME280;4988;49.238;6.698;2023-04-16T04:17:07;99399.09;;;8.82;86.99
9899;BME280;4988;49.238;6.698;2023-04-16T04:19:33;99414.19;;;8.80;86.45
9899;BME280;4988;49.238;6.698;2023-04-16T04:21:58;99405.38;;;8.80;86.97
9899;BME280;4988;49.238;6.698;2023-04-16T04:24:24;99407.38;;;8.73;87.38
9899;BME280;4988;49.238;6.698;2023-04-16T04:26:49;99409.16;;;8.73;87.12
9899;BME280;4988;49.238;6.698;2023-04-16T04:29:15;99410.13;;;8.70;87.60
9899;BME280;4988;49.238;6.698;2023-04-16T04:31:40;99407.38;;;8.73;87.18
9899;BME280;4988;49.238;6.698;2023-04-16T04:34:06;99410.75;;;8.78;87.17
9899;BME280;4988;49.238;6.698;2023-04-16T04:36:31;99404.63;;;8.76;86.97
9899;BME280;4988;49.238;6.698;2023-04-16T04:38:56;99423.06;;;8.81;87.07
9899;BME280;4988;49.238;6.698;2023-04-16T04:41:22;99416.91;;;8.79;86.61
9899;BME280;4988;49.238;6.698;2023-04-16T04:43:48;99425.78;;;8.78;87.04
9899;BME280;4988;49.238;6.698;2023-04-16T04:46:13;99438.03;;;8.82;87.46
9899;BME280;4988;49.238;6.698;2023-04-16T04:48:38;99442.34;;;8.86;87.28
9899;BME280;4988;49.238;6.698;2023-04-16T04:51:04;99429.75;;;8.91;86.87
9899;BME280;4988;49.238;6.698;2023-04-16T04:53:29;99444.09;;;8.85;86.84
9899;BME280;4988;49.238;6.698;2023-04-16T04:55:54;99444.09;;;8.85;86.25
9899;BME280;4988;49.238;6.698;2023-04-16T04:58:20;99445.97;;;8.83;86.91
9899;BME280;4988;49.238;6.698;2023-04-16T05:00:45;99434.47;;;8.83;86.65
9899;BME280;4988;49.238;6.698;2023-04-16T05:03:11;99446.19;;;8.77;86.78
9899;BME280;4988;49.238;6.698;2023-04-16T05:05:38;99447.84;;;8.80;87.17
9899;BME280;4988;49.238;6.698;2023-04-16T05:08:03;99457.75;;;8.75;87.05
9899;BME280;4988;49.238;6.698;2023-04-16T05:10:29;99451.78;;;8.68;88.04
9899;BME280;4988;49.238;6.698;2023-04-16T05:12:54;99452.47;;;8.75;88.00
9899;BME280;4988;49.238;6.698;2023-04-16T05:15:19;99453.38;;;8.74;87.87
9899;BME280;4988;49.238;6.698;2023-04-16T05:17:45;99456.78;;;8.77;87.72
9899;BME280;4988;49.238;6.698;2023-04-16T05:20:10;99460.00;;;8.87;87.59
9899;BME280;4988;49.238;6.698;2023-04-16T05:22:36;99463.56;;;8.86;87.06
9899;BME280;4988;49.238;6.698;2023-04-16T05:25:01;99464.53;;;8.83;87.03
9899;BME280;4988;49.238;6.698;2023-04-16T05:27:27;99467.91;;;8.89;87.46
9899;BME280;4988;49.238;6.698;2023-04-16T05:29:52;99465.19;;;8.90;87.03
9899;BME280;4988;49.238;6.698;2023-04-16T05:32:17;99462.44;;;8.93;86.88
9899;BME280;4988;49.238;6.698;2023-04-16T05:34:43;99471.13;;;8.98;87.02
9899;BME280;4988;49.238;6.698;2023-04-16T05:37:08;99473.78;;;8.98;86.48
9899;BME280;4988;49.238;6.698;2023-04-16T05:39:33;99469.38;;;8.97;86.56
9899;BME280;4988;49.238;6.698;2023-04-16T05:41:59;99482.81;;;8.93;86.58
9899;BME280;4988;49.238;6.698;2023-04-16T05:44:24;99481.19;;;8.89;86.90
9899;BME280;4988;49.238;6.698;2023-04-16T05:46:50;99489.19;;;8.87;86.75
9899;BME280;4988;49.238;6.698;2023-04-16T05:49:15;99488.31;;;8.87;86.68
9899;BME280;4988;49.238;6.698;2023-04-16T05:51:42;99492.84;;;8.84;87.08
9899;BME280;4988;49.238;6.698;2023-04-16T05:54:08;99490.06;;;8.88;87.61
9899;BME280;4988;49.238;6.698;2023-04-16T05:56:33;99492.66;;;8.89;87.73
9899;BME280;4988;49.238;6.698;2023-04-16T05:58:58;99500.47;;;8.94;87.31
9899;BME280;4988;49.238;6.698;2023-04-16T06:01:24;99506.66;;;8.94;87.38
9899;BME280;4988;49.238;6.698;2023-04-16T06:03:49;99496.91;;;8.95;87.30
9899;BME280;4988;49.238;6.698;2023-04-16T06:06:15;99510.94;;;8.98;86.70
9899;BME280;4988;49.238;6.698;2023-04-16T06:08:40;99502.09;;;8.98;87.36
9899;BME280;4988;49.238;6.698;2023-04-16T06:11:05;99507.41;;;8.98;86.84
9899;BME280;4988;49.238;6.698;2023-04-16T06:13:31;99507.53;;;8.95;87.15
9899;BME280;4988;49.238;6.698;2023-04-16T06:15:56;99511.09;;;8.94;87.21
9899;BME280;4988;49.238;6.698;2023-04-16T06:18:22;99507.66;;;8.90;87.55
9899;BME280;4988;49.238;6.698;2023-04-16T06:20:47;99512.06;;;8.91;88.06
9899;BME280;4988;49.238;6.698;2023-04-16T06:23:13;99507.47;;;8.96;88.12
9899;BME280;4988;49.238;6.698;2023-04-16T06:25:38;99520.47;;;9.04;88.23
9899;BME280;4988;49.238;6.698;2023-04-16T06:28:04;99520.31;;;9.09;87.11
9899;BME280;4988;49.238;6.698;2023-04-16T06:30:29;99522.19;;;9.07;87.19
9899;BME280;4988;49.238;6.698;2023-04-16T06:32:55;99518.38;;;9.14;87.38
9899;BME280;4988;49.238;6.698;2023-04-16T06:35:20;99514.78;;;9.16;87.07
9899;BME280;4988;49.238;6.698;2023-04-16T06:37:46;99521.78;;;9.19;86.80
9899;BME280;4988;49.238;6.698;2023-04-16T06:40:11;99519.00;;;9.22;86.68
9899;BME280;4988;49.238;6.698;2023-04-16T06:42:37;99526.97;;;9.22;86.86
9899;BME280;4988;49.238;6.698;2023-04-16T06:45:02;99529.47;;;9.27;87.07
9899;BME280;4988;49.238;6.698;2023-04-16T06:47:28;99529.34;;;9.30;86.81
9899;BME280;4988;49.238;6.698;2023-04-16T06:49:53;99523.09;;;9.32;86.34
9899;BME280;4988;49.238;6.698;2023-04-16T06:52:18;99520.44;;;9.32;86.38
9899;BME280;4988;49.238;6.698;2023-04-16T06:54:44;99526.66;;;9.31;86.28
9899;BME280;4988;49.238;6.698;2023-04-16T06:57:09;99529.03;;;9.39;86.84
9899;BME280;4988;49.238;6.698;2023-04-16T06:59:35;99529.78;;;9.43;86.16
9899;BME280;4988;49.238;6.698;2023-04-16T07:02:00;99532.03;;;9.55;85.59
9899;BME280;4988;49.238;6.698;2023-04-16T07:04:26;99531.03;;;9.58;85.11
9899;BME280;4988;49.238;6.698;2023-04-16T07:06:51;99535.59;;;9.54;85.38
9899;BME280;4988;49.238;6.698;2023-04-16T07:09:16;99529.38;;;9.55;85.62
9899;BME280;4988;49.238;6.698;2023-04-16T07:11:42;99529.13;;;9.61;85.71
9899;BME280;4988;49.238;6.698;2023-04-16T07:14:08;99530.94;;;9.61;85.78
9899;BME280;4988;49.238;6.698;2023-04-16T07:16:33;99526.41;;;9.63;85.77
9899;BME280;4988;49.238;6.698;2023-04-16T07:18:58;99529.06;;;9.63;85.15
9899;BME280;4988;49.238;6.698;2023-04-16T07:21:24;99527.09;;;9.70;84.60
9899;BME280;4988;49.238;6.698;2023-04-16T07:23:50;99531.28;;;9.75;83.97
9899;BME280;4988;49.238;6.698;2023-04-16T07:26:16;99529.53;;;9.76;84.95
9899;BME280;4988;49.238;6.698;2023-04-16T07:28:41;99532.72;;;9.86;84.73
9899;BME280;4988;49.238;6.698;2023-04-16T07:31:06;99531.56;;;9.93;84.14
9899;BME280;4988;49.238;6.698;2023-04-16T07:33:32;99534.03;;;9.97;84.46
9899;BME280;4988;49.238;6.698;2023-04-16T07:35:57;99533.16;;;9.97;83.39
9899;BME280;4988;49.238;6.698;2023-04-16T07:38:23;99536.69;;;9.97;83.17
9899;BME280;4988;49.238;6.698;2023-04-16T07:40:48;99536.59;;;10.01;82.87
9899;BME280;4988;49.238;6.698;2023-04-16T07:43:14;99540.16;;;10.00;83.04
9899;BME280;4988;49.238;6.698;2023-04-16T07:45:40;99541.03;;;10.00;83.59
9899;BME280;4988;49.238;6.698;2023-04-16T07:48:06;99544.56;;;10.01;83.47
9899;BME280;4988;49.238;6.698;2023-04-16T07:50:31;99550.81;;;10.00;83.82
9899;BME280;4988;49.238;6.698;2023-04-16T07:52:56;99555.91;;;10.06;83.03
9899;BME280;4988;49.238;6.698;2023-04-16T07:55:22;99557.94;;;9.99;82.28
9899;BME280;4988;49.238;6.698;2023-04-16T07:57:47;99553.56;;;9.96;82.88
9899;BME280;4988;49.238;6.698;2023-04-16T08:00:12;99560.63;;;9.97;82.46
9899;BME280;4988;49.238;6.698;2023-04-16T08:02:38;99566.75;;;10.00;83.05
9899;BME280;4988;49.238;6.698;2023-04-16T08:05:04;99559.59;;;10.02;82.63
9899;BME280;4988;49.238;6.698;2023-04-16T08:07:29;99563.53;;;10.15;81.91
9899;BME280;4988;49.238;6.698;2023-04-16T08:09:55;99565.63;;;10.07;81.49
9899;BME280;4988;49.238;6.698;2023-04-16T08:12:20;99578.78;;;10.10;81.61
9899;BME280;4988;49.238;6.698;2023-04-16T08:14:46;99579.84;;;10.06;81.28
9899;BME280;4988;49.238;6.698;2023-04-16T08:17:13;99573.66;;;10.05;81.51
9899;BME280;4988;49.238;6.698;2023-04-16T08:19:39;99571.75;;;10.09;81.93
9899;BME280;4988;49.238;6.698;2023-04-16T08:22:05;99584.84;;;10.13;80.83
9899;BME280;4988;49.238;6.698;2023-04-16T08:24:30;99587.41;;;10.17;80.78
9899;BME280;4988;49.238;6.698;2023-04-16T08:26:55;99589.19;;;10.16;80.77
9899;BME280;4988;49.238;6.698;2023-04-16T08:29:21;99582.03;;;10.18;80.70
9899;BME280;4988;49.238;6.698;2023-04-16T08:31:49;99590.72;;;10.23;81.77
9899;BME280;4988;49.238;6.698;2023-04-16T08:34:14;99590.47;;;10.29;81.73
9899;BME280;4988;49.238;6.698;2023-04-16T08:36:40;99591.00;;;10.41;81.42
9899;BME280;4988;49.238;6.698;2023-04-16T08:39:05;99583.28;;;10.57;80.27
9899;BME280;4988;49.238;6.698;2023-04-16T08:41:31;99580.69;;;10.77;80.12
9899;BME280;4988;49.238;6.698;2023-04-16T08:43:59;99582.91;;;10.88;78.08
9899;BME280;4988;49.238;6.698;2023-04-16T08:46:30;99583.56;;;10.95;77.33
9899;BME280;4988;49.238;6.698;2023-04-16T08:48:58;99585.81;;;11.04;77.00
9899;BME280;4988;49.238;6.698;2023-04-16T08:51:27;99583.53;;;11.17;75.36
9899;BME280;4988;49.238;6.698;2023-04-16T08:53:59;99570.66;;;11.27;75.88
9899;BME280;4988;49.238;6.698;2023-04-16T08:56:27;99587.66;;;11.24;76.31
9899;BME280;4988;49.238;6.698;2023-04-16T08:58:53;99585.72;;;11.28;74.33
9899;BME280;4988;49.238;6.698;2023-04-16T09:01:19;99586.47;;;11.32;74.43
9899;BME280;4988;49.238;6.698;2023-04-16T09:03:48;99585.03;;;11.45;73.89
9899;BME280;4988;49.238;6.698;2023-04-16T09:06:15;99591.03;;;11.50;73.14
9899;BME280;4988;49.238;6.698;2023-04-16T09:08:45;99590.72;;;11.58;73.45
9899;BME280;4988;49.238;6.698;2023-04-16T09:11:12;99590.38;;;11.66;72.69
9899;BME280;4988;49.238;6.698;2023-04-16T09:13:38;99592.91;;;11.69;72.65
9899;BME280;4988;49.238;6.698;2023-04-16T09:16:05;99593.91;;;11.66;71.75
9899;BME280;4988;49.238;6.698;2023-04-16T09:18:31;99591.31;;;11.65;72.49
9899;BME280;4988;49.238;6.698;2023-04-16T09:20:56;99588.78;;;11.62;72.62
9899;BME280;4988;49.238;6.698;2023-04-16T09:23:22;99584.91;;;11.48;71.54
9899;BME280;4988;49.238;6.698;2023-04-16T09:25:49;99586.56;;;11.51;72.26
9899;BME280;4988;49.238;6.698;2023-04-16T09:28:44;99587.03;;;11.40;72.81
9899;BME280;4988;49.238;6.698;2023-04-16T09:31:14;99592.28;;;11.41;73.00
9899;BME280;4988;49.238;6.698;2023-04-16T09:33:41;99590.53;;;11.40;73.10
9899;BME280;4988;49.238;6.698;2023-04-16T09:36:09;99598.28;;;11.47;73.89
9899;BME280;4988;49.238;6.698;2023-04-16T09:38:48;99596.34;;;11.50;73.42
9899;BME280;4988;49.238;6.698;2023-04-16T09:41:14;99602.44;;;11.54;74.55
9899;BME280;4988;49.238;6.698;2023-04-16T09:46:28;99598.97;;;11.72;74.06
9899;BME280;4988;49.238;6.698;2023-04-16T09:48:54;99601.06;;;11.86;73.04
9899;BME280;4988;49.238;6.698;2023-04-16T09:51:19;99602.41;;;11.97;72.35
9899;BME280;4988;49.238;6.698;2023-04-16T09:53:44;99605.88;;;11.99;71.07
9899;BME280;4988;49.238;6.698;2023-04-16T09:56:10;99608.25;;;11.84;71.40
9899;BME280;4988;49.238;6.698;2023-04-16T09:58:36;99613.44;;;11.87;72.34
9899;BME280;4988;49.238;6.698;2023-04-16T10:01:09;99617.78;;;11.90;71.39
9899;BME280;4988;49.238;6.698;2023-04-16T10:03:39;99614.97;;;11.93;72.21
9899;BME280;4988;49.238;6.698;2023-04-16T10:08:34;99617.66;;;12.14;70.32
9899;BME280;4988;49.238;6.698;2023-04-16T10:11:01;99607.56;;;12.20;70.04
9899;BME280;4988;49.238;6.698;2023-04-16T10:13:27;99612.13;;;12.18;71.56
9899;BME280;4988;49.238;6.698;2023-04-16T10:15:55;99615.91;;;12.13;69.92
9899;BME280;4988;49.238;6.698;2023-04-16T10:18:22;99618.94;;;12.05;70.90
9899;BME280;4988;49.238;6.698;2023-04-16T10:20:48;99621.94;;;11.97;71.19
9899;BME280;4988;49.238;6.698;2023-04-16T10:23:14;99615.91;;;11.92;70.90
9899;BME280;4988;49.238;6.698;2023-04-16T10:25:41;99606.16;;;11.91;71.05
9899;BME280;4988;49.238;6.698;2023-04-16T10:28:08;99613.06;;;11.97;72.12
9899;BME280;4988;49.238;6.698;2023-04-16T10:30:35;99616.59;;;11.97;71.43
9899;BME280;4988;49.238;6.698;2023-04-16T10:33:02;99616.78;;;11.93;71.53
9899;BME280;4988;49.238;6.698;2023-04-16T10:35:29;99618.53;;;11.94;72.23
9899;BME280;4988;49.238;6.698;2023-04-16T10:37:56;99615.13;;;11.90;71.16
9899;BME280;4988;49.238;6.698;2023-04-16T10:40:26;99612.50;;;11.88;71.59
9899;BME280;4988;49.238;6.698;2023-04-16T10:42:58;99613.19;;;11.94;71.95
9899;BME280;4988;49.238;6.698;2023-04-16T10:45:31;99608.63;;;11.96;71.47
9899;BME280;4988;49.238;6.698;2023-04-16T10:48:04;99612.06;;;11.99;70.99
9899;BME280;4988;49.238;6.698;2023-04-16T10:50:34;99614.47;;;12.05;70.39
9899;BME280;4988;49.238;6.698;2023-04-16T10:53:16;99615.06;;;12.12;69.92
9899;BME280;4988;49.238;6.698;2023-04-16T10:56:09;99614.25;;;12.10;69.82
9899;BME280;4988;49.238;6.698;2023-04-16T10:58:35;99617.75;;;12.12;69.38
9899;BME280;4988;49.238;6.698;2023-04-16T11:01:14;99607.84;;;12.14;69.83
9899;BME280;4988;49.238;6.698;2023-04-16T11:03:47;99602.38;;;12.17;70.15
9899;BME280;4988;49.238;6.698;2023-04-16T11:06:22;99608.44;;;12.21;69.77
9899;BME280;4988;49.238;6.698;2023-04-16T11:08:50;99609.91;;;12.28;69.37
9899;BME280;4988;49.238;6.698;2023-04-16T11:11:17;99616.53;;;12.38;69.31
9899;BME280;4988;49.238;6.698;2023-04-16T11:13:43;99610.34;;;12.38;70.20
9899;BME280;4988;49.238;6.698;2023-04-16T11:16:10;99603.63;;;12.48;69.15
9899;BME280;4988;49.238;6.698;2023-04-16T11:18:37;99612.28;;;12.53;69.04
9899;BME280;4988;49.238;6.698;2023-04-16T11:21:10;99614.88;;;12.55;68.77
9899;BME280;4988;49.238;6.698;2023-04-16T11:23:50;99605.72;;;12.61;67.55
9899;BME280;4988;49.238;6.698;2023-04-16T11:26:26;99612.66;;;12.65;68.20
9899;BME280;4988;49.238;6.698;2023-04-16T11:28:54;99605.31;;;12.70;67.56
9899;BME280;4988;49.238;6.698;2023-04-16T11:31:22;99606.44;;;12.83;67.55
9899;BME280;4988;49.238;6.698;2023-04-16T11:33:48;99604.72;;;12.82;67.17
9899;BME280;4988;49.238;6.698;2023-04-16T11:36:14;99604.13;;;12.95;67.22
9899;BME280;4988;49.238;6.698;2023-04-16T11:38:39;99611.91;;;12.99;67.37
9899;BME280;4988;49.238;6.698;2023-04-16T11:41:08;99601.16;;;13.01;66.20
9899;BME280;4988;49.238;6.698;2023-04-16T11:43:35;99603.22;;;13.13;65.89
9899;BME280;4988;49.238;6.698;2023-04-16T11:46:02;99596.25;;;13.28;65.71
9899;BME280;4988;49.238;6.698;2023-04-16T11:48:47;99592.78;;;13.26;64.49
9899;BME280;4988;49.238;6.698;2023-04-16T11:51:13;99599.56;;;13.33;64.69
9899;BME280;4988;49.238;6.698;2023-04-16T11:53:49;99591.81;;;13.46;64.22
9899;BME280;4988;49.238;6.698;2023-04-16T11:56:23;99593.38;;;13.50;62.18
9899;BME280;4988;49.238;6.698;2023-04-16T12:01:40;99600.00;;;13.78;63.90
9899;BME280;4988;49.238;6.698;2023-04-16T12:04:06;99593.91;;;13.92;61.51
9899;BME280;4988;49.238;6.698;2023-04-16T12:06:32;99597.75;;;14.04;62.81
9899;BME280;4988;49.238;6.698;2023-04-16T12:09:20;99591.66;;;14.18;61.69
9899;BME280;4988;49.238;6.698;2023-04-16T12:11:46;99593.44;;;14.35;61.38
9899;BME280;4988;49.238;6.698;2023-04-16T12:14:11;99596.38;;;14.46;59.99
9899;BME280;4988;49.238;6.698;2023-04-16T12:16:37;99591.88;;;14.47;59.42
9899;BME280;4988;49.238;6.698;2023-04-16T12:19:03;99591.88;;;14.47;59.92
9899;BME280;4988;49.238;6.698;2023-04-16T12:21:42;99598.13;;;14.47;60.10
9899;BME280;4988;49.238;6.698;2023-04-16T12:24:09;99592.78;;;14.47;57.55
9899;BME280;4988;49.238;6.698;2023-04-16T12:26:47;99592.91;;;14.44;58.98
9899;BME280;4988;49.238;6.698;2023-04-16T12:29:18;99590.09;;;14.47;59.32
9899;BME280;4988;49.238;6.698;2023-04-16T12:31:45;99586.19;;;14.53;59.20
9899;BME280;4988;49.238;6.698;2023-04-16T12:34:11;99593.63;;;14.64;58.87
9899;BME280;4988;49.238;6.698;2023-04-16T12:36:37;99594.88;;;14.74;58.90
9899;BME280;4988;49.238;6.698;2023-04-16T12:39:02;99586.41;;;14.82;58.33
9899;BME280;4988;49.238;6.698;2023-04-16T12:41:28;99580.72;;;14.88;57.58
9899;BME280;4988;49.238;6.698;2023-04-16T12:44:15;99586.22;;;15.01;57.27
9899;BME280;4988;49.238;6.698;2023-04-16T12:46:42;99588.06;;;15.01;56.95
9899;BME280;4988;49.238;6.698;2023-04-16T12:49:08;99582.94;;;15.12;57.14
9899;BME280;4988;49.238;6.698;2023-04-16T12:51:35;99582.94;;;15.12;56.34
9899;BME280;4988;49.238;6.698;2023-04-16T12:54:03;99576.72;;;15.11;57.05
9899;BME280;4988;49.238;6.698;2023-04-16T12:56:29;99579.47;;;15.10;57.62
9899;BME280;4988;49.238;6.698;2023-04-16T12:58:54;99578.59;;;15.09;57.24
9899;BME280;4988;49.238;6.698;2023-04-16T13:01:20;99572.56;;;15.06;56.13
9899;BME280;4988;49.238;6.698;2023-04-16T13:03:46;99574.44;;;15.04;56.01
9899;BME280;4988;49.238;6.698;2023-04-16T13:06:13;99574.44;;;15.04;56.25
9899;BME280;4988;49.238;6.698;2023-04-16T13:08:39;99586.22;;;15.01;55.95
9899;BME280;4988;49.238;6.698;2023-04-16T13:11:05;99572.31;;;14.94;54.13
9899;BME280;4988;49.238;6.698;2023-04-16T13:13:31;99579.31;;;14.81;54.56
9899;BME280;4988;49.238;6.698;2023-04-16T13:15:57;99575.84;;;14.79;55.52
9899;BME280;4988;49.238;6.698;2023-04-16T13:18:23;99570.50;;;14.79;56.02
9899;BME280;4988;49.238;6.698;2023-04-16T13:20:48;99565.66;;;14.86;55.87
9899;BME280;4988;49.238;6.698;2023-04-16T13:23:13;99569.38;;;14.99;56.24
9899;BME280;4988;49.238;6.698;2023-04-16T13:25:39;99571.34;;;15.11;55.74
9899;BME280;4988;49.238;6.698;2023-04-16T13:28:05;99573.47;;;15.21;55.52
9899;BME280;4988;49.238;6.698;2023-04-16T13:30:30;99575.13;;;15.23;54.49
9899;BME280;4988;49.238;6.698;2023-04-16T13:32:57;99570.63;;;15.24;55.35